Aviation Digital Data Service (ADDS)

Output produced by METARs form (2233 UTC 25 October 2021)
found at http://www.aviationweather.gov/metar/data/
 
METAR text: LSZH 252220Z AUTO VRB01KT 9000 2500NW VCFG FEW036 03/03 Q1023 TEMPO 3000
Conditions at: LSZH (ZURICH-KLOTEN (A, CH) observed 2220 UTC 25 October 2021
Temperature: 3.0°C (37°F)
Dewpoint: 3.0°C (37°F) [RH = 100%]
Pressure (altimeter): 30.21 inches Hg (1023.0 mb)
Winds: variable direction winds at 1 MPH (1 knots; 0.5 m/s)
Visibility: 6 miles ( 9 km)
Ceiling: at least 12,000 feet AGL
Clouds: few clouds at 3600 feet AGL
Weather: VCFG  (fog in vicinity)

METAR text: LSZH 252150Z AUTO VRB01KT 9000 0200N R14/P2000N R16/P2000N R28/P2000N R34/P2000N BCFG FEW001 03/03 Q1023 TEMPO 3000
Conditions at: LSZH (ZURICH-KLOTEN (A, CH) observed 2150 UTC 25 October 2021
Temperature: 3.0°C (37°F)
Dewpoint: 3.0°C (37°F) [RH = 100%]
Pressure (altimeter): 30.21 inches Hg (1023.0 mb)
Winds: variable direction winds at 1 MPH (1 knots; 0.5 m/s)
Visibility: 6 miles ( 9 km)
Ceiling: at least 12,000 feet AGL
Clouds: few clouds at 100 feet AGL
Weather: BCFG  (patches of fog)

METAR text: LSZH 252120Z VRB02KT 6000 BCFG NSC 05/05 Q1022 BECMG 4500 BCFG
Conditions at: LSZH (ZURICH-KLOTEN (A, CH) observed 2120 UTC 25 October 2021
Temperature: 5.0°C (41°F)
Dewpoint: 5.0°C (41°F) [RH = 100%]
Pressure (altimeter): 30.18 inches Hg (1022.0 mb)
Winds: variable direction winds at 2 MPH (2 knots; 1.0 m/s)
Visibility: 4 miles ( 6 km)
Ceiling: at least 12,000 feet AGL
Clouds: sky clear below 12,000 feet AGL
Weather: BCFG  (patches of fog)

METAR text: LSZH 252050Z VRB01KT 6000 BCFG NSC 05/05 Q1022 BECMG 4500 BCFG
Conditions at: LSZH (ZURICH-KLOTEN (A, CH) observed 2050 UTC 25 October 2021
Temperature: 5.0°C (41°F)
Dewpoint: 5.0°C (41°F) [RH = 100%]
Pressure (altimeter): 30.18 inches Hg (1022.0 mb)
Winds: variable direction winds at 1 MPH (1 knots; 0.5 m/s)
Visibility: 4 miles ( 6 km)
Ceiling: at least 12,000 feet AGL
Clouds: sky clear below 12,000 feet AGL
Weather: BCFG  (patches of fog)

METAR text: LSZH 252020Z 16002KT 6000 BCFG NSC 04/04 Q1022 BECMG 4500 BCFG
Conditions at: LSZH (ZURICH-KLOTEN (A, CH) observed 2020 UTC 25 October 2021
Temperature: 4.0°C (39°F)
Dewpoint: 4.0°C (39°F) [RH = 100%]
Pressure (altimeter): 30.18 inches Hg (1022.0 mb)
Winds: from the SSE (160 degrees) at 2 MPH (2 knots; 1.0 m/s)
Visibility: 4 miles ( 6 km)
Ceiling: at least 12,000 feet AGL
Clouds: sky clear below 12,000 feet AGL
Weather: BCFG  (patches of fog)

METAR text: LSZH 251950Z VRB02KT 8000 MIFG NSC 04/03 Q1022 BECMG 4500 BCFG
Conditions at: LSZH (ZURICH-KLOTEN (A, CH) observed 1950 UTC 25 October 2021
Temperature: 4.0°C (39°F)
Dewpoint: 3.0°C (37°F) [RH = 93%]
Pressure (altimeter): 30.18 inches Hg (1022.0 mb)
Winds: variable direction winds at 2 MPH (2 knots; 1.0 m/s)
Visibility: 5 miles ( 8 km)
Ceiling: at least 12,000 feet AGL
Clouds: sky clear below 12,000 feet AGL
Weather: MIFG  (shallow fog)

METAR text: LSZH 251920Z 35004KT 8000 MIFG NSC 06/05 Q1022 BECMG 4500 BCFG
Conditions at: LSZH (ZURICH-KLOTEN (A, CH) observed 1920 UTC 25 October 2021
Temperature: 6.0°C (43°F)
Dewpoint: 5.0°C (41°F) [RH = 93%]
Pressure (altimeter): 30.18 inches Hg (1022.0 mb)
Winds: from the N (350 degrees) at 5 MPH (4 knots; 2.1 m/s)
Visibility: 5 miles ( 8 km)
Ceiling: at least 12,000 feet AGL
Clouds: sky clear below 12,000 feet AGL
Weather: MIFG  (shallow fog)

METAR text: LSZH 251850Z 30002KT 9999 MIFG NSC 07/07 Q1021 BECMG 4500 BCFG
Conditions at: LSZH (ZURICH-KLOTEN (A, CH) observed 1850 UTC 25 October 2021
Temperature: 7.0°C (45°F)
Dewpoint: 7.0°C (45°F) [RH = 100%]
Pressure (altimeter): 30.15 inches Hg (1021.0 mb)
Winds: from the WNW (300 degrees) at 2 MPH (2 knots; 1.0 m/s)
Visibility: 6 or more miles (10+ km)
Ceiling: at least 12,000 feet AGL
Clouds: sky clear below 12,000 feet AGL
Weather: MIFG  (shallow fog)

METAR text: LSZH 251820Z VRB01KT 9999 MIFG NSC 07/06 Q1022 BECMG 4500 BCFG
Conditions at: LSZH (ZURICH-KLOTEN (A, CH) observed 1820 UTC 25 October 2021
Temperature: 7.0°C (45°F)
Dewpoint: 6.0°C (43°F) [RH = 93%]
Pressure (altimeter): 30.18 inches Hg (1022.0 mb)
Winds: variable direction winds at 1 MPH (1 knots; 0.5 m/s)
Visibility: 6 or more miles (10+ km)
Ceiling: at least 12,000 feet AGL
Clouds: sky clear below 12,000 feet AGL
Weather: MIFG  (shallow fog)

METAR text: LSZH 251750Z VRB02KT CAVOK 06/05 Q1021 NOSIG
Conditions at: LSZH (ZURICH-KLOTEN (A, CH) observed 1750 UTC 25 October 2021
Temperature: 6.0°C (43°F)
Dewpoint: 5.0°C (41°F) [RH = 93%]
Pressure (altimeter): 30.15 inches Hg (1021.0 mb)
Winds: variable direction winds at 2 MPH (2 knots; 1.0 m/s)
Visibility: 6 or more miles (10+ km)
Ceiling: ceiling and visibility are OK
Clouds: unknown
Weather: no significant weather observed at this time

METAR text: LSZH 251720Z 32004KT CAVOK 08/07 Q1021 NOSIG
Conditions at: LSZH (ZURICH-KLOTEN (A, CH) observed 1720 UTC 25 October 2021
Temperature: 8.0°C (46°F)
Dewpoint: 7.0°C (45°F) [RH = 93%]
Pressure (altimeter): 30.15 inches Hg (1021.0 mb)
Winds: from the NW (320 degrees) at 5 MPH (4 knots; 2.1 m/s)
Visibility: 6 or more miles (10+ km)
Ceiling: ceiling and visibility are OK
Clouds: unknown
Weather: no significant weather observed at this time

METAR text: LSZH 251650Z VRB02KT CAVOK 09/07 Q1021 NOSIG
Conditions at: LSZH (ZURICH-KLOTEN (A, CH) observed 1650 UTC 25 October 2021
Temperature: 9.0°C (48°F)
Dewpoint: 7.0°C (45°F) [RH = 87%]
Pressure (altimeter): 30.15 inches Hg (1021.0 mb)
Winds: variable direction winds at 2 MPH (2 knots; 1.0 m/s)
Visibility: 6 or more miles (10+ km)
Ceiling: ceiling and visibility are OK
Clouds: unknown
Weather: no significant weather observed at this time

METAR text: LSZH 251620Z 02003KT CAVOK 12/08 Q1021 NOSIG
Conditions at: LSZH (ZURICH-KLOTEN (A, CH) observed 1620 UTC 25 October 2021
Temperature: 12.0°C (54°F)
Dewpoint: 8.0°C (46°F) [RH = 76%]
Pressure (altimeter): 30.15 inches Hg (1021.0 mb)
Winds: from the NNE (20 degrees) at 3 MPH (3 knots; 1.5 m/s)
Visibility: 6 or more miles (10+ km)
Ceiling: ceiling and visibility are OK
Clouds: unknown
Weather: no significant weather observed at this time

METAR text: LSZH 251550Z VRB02KT CAVOK 14/08 Q1021 NOSIG
Conditions at: LSZH (ZURICH-KLOTEN (A, CH) observed 1550 UTC 25 October 2021
Temperature: 14.0°C (57°F)
Dewpoint: 8.0°C (46°F) [RH = 67%]
Pressure (altimeter): 30.15 inches Hg (1021.0 mb)
Winds: variable direction winds at 2 MPH (2 knots; 1.0 m/s)
Visibility: 6 or more miles (10+ km)
Ceiling: ceiling and visibility are OK
Clouds: unknown
Weather: no significant weather observed at this time

METAR text: LSZH 251520Z VRB01KT CAVOK 15/07 Q1021 NOSIG
Conditions at: LSZH (ZURICH-KLOTEN (A, CH) observed 1520 UTC 25 October 2021
Temperature: 15.0°C (59°F)
Dewpoint: 7.0°C (45°F) [RH = 59%]
Pressure (altimeter): 30.15 inches Hg (1021.0 mb)
Winds: variable direction winds at 1 MPH (1 knots; 0.5 m/s)
Visibility: 6 or more miles (10+ km)
Ceiling: ceiling and visibility are OK
Clouds: unknown
Weather: no significant weather observed at this time

METAR text: LSZH 251450Z VRB01KT CAVOK 14/06 Q1021 NOSIG
Conditions at: LSZH (ZURICH-KLOTEN (A, CH) observed 1450 UTC 25 October 2021
Temperature: 14.0°C (57°F)
Dewpoint: 6.0°C (43°F) [RH = 58%]
Pressure (altimeter): 30.15 inches Hg (1021.0 mb)
Winds: variable direction winds at 1 MPH (1 knots; 0.5 m/s)
Visibility: 6 or more miles (10+ km)
Ceiling: ceiling and visibility are OK
Clouds: unknown
Weather: no significant weather observed at this time

METAR text: LSZH 251420Z VRB02KT CAVOK 15/07 Q1021 NOSIG
Conditions at: LSZH (ZURICH-KLOTEN (A, CH) observed 1420 UTC 25 October 2021
Temperature: 15.0°C (59°F)
Dewpoint: 7.0°C (45°F) [RH = 59%]
Pressure (altimeter): 30.15 inches Hg (1021.0 mb)
Winds: variable direction winds at 2 MPH (2 knots; 1.0 m/s)
Visibility: 6 or more miles (10+ km)
Ceiling: ceiling and visibility are OK
Clouds: unknown
Weather: no significant weather observed at this time

METAR text: LSZH 251350Z VRB02KT CAVOK 14/07 Q1021 NOSIG
Conditions at: LSZH (ZURICH-KLOTEN (A, CH) observed 1350 UTC 25 October 2021
Temperature: 14.0°C (57°F)
Dewpoint: 7.0°C (45°F) [RH = 63%]
Pressure (altimeter): 30.15 inches Hg (1021.0 mb)
Winds: variable direction winds at 2 MPH (2 knots; 1.0 m/s)
Visibility: 6 or more miles (10+ km)
Ceiling: ceiling and visibility are OK
Clouds: unknown
Weather: no significant weather observed at this time

METAR text: LSZH 251320Z VRB02KT CAVOK 13/08 Q1021 NOSIG
Conditions at: LSZH (ZURICH-KLOTEN (A, CH) observed 1320 UTC 25 October 2021
Temperature: 13.0°C (55°F)
Dewpoint: 8.0°C (46°F) [RH = 72%]
Pressure (altimeter): 30.15 inches Hg (1021.0 mb)
Winds: variable direction winds at 2 MPH (2 knots; 1.0 m/s)
Visibility: 6 or more miles (10+ km)
Ceiling: ceiling and visibility are OK
Clouds: unknown
Weather: no significant weather observed at this time

METAR text: LSZH 251250Z VRB03KT CAVOK 13/07 Q1021 NOSIG
Conditions at: LSZH (ZURICH-KLOTEN (A, CH) observed 1250 UTC 25 October 2021
Temperature: 13.0°C (55°F)
Dewpoint: 7.0°C (45°F) [RH = 67%]
Pressure (altimeter): 30.15 inches Hg (1021.0 mb)
Winds: variable direction winds at 3 MPH (3 knots; 1.5 m/s)
Visibility: 6 or more miles (10+ km)
Ceiling: ceiling and visibility are OK
Clouds: unknown
Weather: no significant weather observed at this time

METAR text: LSZH 251220Z VRB02KT CAVOK 12/07 Q1022 NOSIG
Conditions at: LSZH (ZURICH-KLOTEN (A, CH) observed 1220 UTC 25 October 2021
Temperature: 12.0°C (54°F)
Dewpoint: 7.0°C (45°F) [RH = 71%]
Pressure (altimeter): 30.18 inches Hg (1022.0 mb)
Winds: variable direction winds at 2 MPH (2 knots; 1.0 m/s)
Visibility: 6 or more miles (10+ km)
Ceiling: ceiling and visibility are OK
Clouds: unknown
Weather: no significant weather observed at this time

METAR text: LSZH 251150Z 31003KT 260V360 CAVOK 12/07 Q1022 NOSIG
Conditions at: LSZH (ZURICH-KLOTEN (A, CH) observed 1150 UTC 25 October 2021
Temperature: 12.0°C (54°F)
Dewpoint: 7.0°C (45°F) [RH = 71%]
Pressure (altimeter): 30.18 inches Hg (1022.0 mb)
Winds: from the NW (310 degrees) at 3 MPH (3 knots; 1.5 m/s)
Visibility: 6 or more miles (10+ km)
Ceiling: ceiling and visibility are OK
Clouds: unknown
Weather: no significant weather observed at this time

METAR text: LSZH 251120Z VRB02KT 8000 NSC 10/07 Q1022 NOSIG
Conditions at: LSZH (ZURICH-KLOTEN (A, CH) observed 1120 UTC 25 October 2021
Temperature: 10.0°C (50°F)
Dewpoint: 7.0°C (45°F) [RH = 82%]
Pressure (altimeter): 30.18 inches Hg (1022.0 mb)
Winds: variable direction winds at 2 MPH (2 knots; 1.0 m/s)
Visibility: 5 miles ( 8 km)
Ceiling: at least 12,000 feet AGL
Clouds: sky clear below 12,000 feet AGL
Weather: no significant weather observed at this time

METAR text: LSZH 251050Z VRB03KT 4000 BR FEW004 08/07 Q1023 BECMG 5000
Conditions at: LSZH (ZURICH-KLOTEN (A, CH) observed 1050 UTC 25 October 2021
Temperature: 8.0°C (46°F)
Dewpoint: 7.0°C (45°F) [RH = 93%]
Pressure (altimeter): 30.21 inches Hg (1023.0 mb)
Winds: variable direction winds at 3 MPH (3 knots; 1.5 m/s)
Visibility: 2.49 miles (4.01 km)
Ceiling: at least 12,000 feet AGL
Clouds: few clouds at 400 feet AGL
Weather: BR  (mist)

METAR text: LSZH 251020Z 29004KT 260V330 2500 BR SCT002 06/06 Q1023 BECMG 4000
Conditions at: LSZH (ZURICH-KLOTEN (A, CH) observed 1020 UTC 25 October 2021
Temperature: 6.0°C (43°F)
Dewpoint: 6.0°C (43°F) [RH = 100%]
Pressure (altimeter): 30.21 inches Hg (1023.0 mb)
Winds: from the WNW (290 degrees) at 5 MPH (4 knots; 2.1 m/s)
Visibility: 1.55 miles (2.49 km)
Ceiling: at least 12,000 feet AGL
Clouds: scattered clouds at 200 feet AGL
Weather: BR  (mist)

METAR text: LSZH 250950Z VRB02KT 1500 BR BKN002 06/06 Q1023 BECMG 3000 BCFG BKN005
Conditions at: LSZH (ZURICH-KLOTEN (A, CH) observed 0950 UTC 25 October 2021
Temperature: 6.0°C (43°F)
Dewpoint: 6.0°C (43°F) [RH = 100%]
Pressure (altimeter): 30.21 inches Hg (1023.0 mb)
Winds: variable direction winds at 2 MPH (2 knots; 1.0 m/s)
Visibility: 0.93 miles (1.50 km)
Ceiling: 200 feet AGL
Clouds: broken clouds at 200 feet AGL
Weather: BR  (mist)

METAR text: LSZH 250920Z VRB02KT 0800 R14/0800U R16/0750U R28/P2000N R34/1300D PRFG VV002 06/05 Q1023 BECMG 3000 BCFG BKN005
Conditions at: LSZH (ZURICH-KLOTEN (A, CH) observed 0920 UTC 25 October 2021
Temperature: 6.0°C (43°F)
Dewpoint: 5.0°C (41°F) [RH = 93%]
Pressure (altimeter): 30.21 inches Hg (1023.0 mb)
Winds: variable direction winds at 2 MPH (2 knots; 1.0 m/s)
Visibility: 0.50 miles (0.80 km)
Ceiling: indefinite ceiling with vertical visibility of 200 feet AGL
Clouds: obscured sky
Weather: PRFG  (partial fog)

METAR text: LSZH 250850Z VRB02KT 0400 R14/1200U R16/0900D R28/P2000N R34/1600N PRFG VV001 05/05 Q1023 BECMG 1500 BCFG BKN005
Conditions at: LSZH (ZURICH-KLOTEN (A, CH) observed 0850 UTC 25 October 2021
Temperature: 5.0°C (41°F)
Dewpoint: 5.0°C (41°F) [RH = 100%]
Pressure (altimeter): 30.21 inches Hg (1023.0 mb)
Winds: variable direction winds at 2 MPH (2 knots; 1.0 m/s)
Visibility: 0.25 miles (0.40 km)
Ceiling: indefinite ceiling with vertical visibility of 100 feet AGL
Clouds: obscured sky
Weather: PRFG  (partial fog)

METAR text: LSZH 250820Z VRB01KT 0300 R14/0700U R16/0550N R28/1600N R34/0800U FG VV001 04/04 Q1023 BECMG 1500 BCFG BKN005
Conditions at: LSZH (ZURICH-KLOTEN (A, CH) observed 0820 UTC 25 October 2021
Temperature: 4.0°C (39°F)
Dewpoint: 4.0°C (39°F) [RH = 100%]
Pressure (altimeter): 30.21 inches Hg (1023.0 mb)
Winds: variable direction winds at 1 MPH (1 knots; 0.5 m/s)
Visibility: 0.19 miles (0.31 km)
Ceiling: indefinite ceiling with vertical visibility of 100 feet AGL
Clouds: obscured sky
Weather: FG  (fog)

METAR text: LSZH 250750Z VRB01KT 0300 R14/0550N R16/0450N R28/0550N R34/0600N FG VV001 04/04 Q1024 NOSIG
Conditions at: LSZH (ZURICH-KLOTEN (A, CH) observed 0750 UTC 25 October 2021
Temperature: 4.0°C (39°F)
Dewpoint: 4.0°C (39°F) [RH = 100%]
Pressure (altimeter): 30.24 inches Hg (1024.0 mb)
Winds: variable direction winds at 1 MPH (1 knots; 0.5 m/s)
Visibility: 0.19 miles (0.31 km)
Ceiling: indefinite ceiling with vertical visibility of 100 feet AGL
Clouds: obscured sky
Weather: FG  (fog)

METAR text: LSZH 250720Z VRB02KT 0300 R14/0500N R16/0450N R28/0550D R34/0500N FG VV001 03/03 Q1024 NOSIG
Conditions at: LSZH (ZURICH-KLOTEN (A, CH) observed 0720 UTC 25 October 2021
Temperature: 3.0°C (37°F)
Dewpoint: 3.0°C (37°F) [RH = 100%]
Pressure (altimeter): 30.24 inches Hg (1024.0 mb)
Winds: variable direction winds at 2 MPH (2 knots; 1.0 m/s)
Visibility: 0.19 miles (0.31 km)
Ceiling: indefinite ceiling with vertical visibility of 100 feet AGL
Clouds: obscured sky
Weather: FG  (fog)

METAR text: LSZH 250650Z 30003KT 0300 R14/0450N R16/0400N R28/0650U R34/0375U FG VV001 03/03 Q1023 NOSIG
Conditions at: LSZH (ZURICH-KLOTEN (A, CH) observed 0650 UTC 25 October 2021
Temperature: 3.0°C (37°F)
Dewpoint: 3.0°C (37°F) [RH = 100%]
Pressure (altimeter): 30.21 inches Hg (1023.0 mb)
Winds: from the WNW (300 degrees) at 3 MPH (3 knots; 1.5 m/s)
Visibility: 0.19 miles (0.31 km)
Ceiling: indefinite ceiling with vertical visibility of 100 feet AGL
Clouds: obscured sky
Weather: FG  (fog)

METAR text: LSZH 250620Z VRB01KT 0300 R14/0500N R16/0450D R28/0650D R34/0650N FG VV001 03/03 Q1023 NOSIG
Conditions at: LSZH (ZURICH-KLOTEN (A, CH) observed 0620 UTC 25 October 2021
Temperature: 3.0°C (37°F)
Dewpoint: 3.0°C (37°F) [RH = 100%]
Pressure (altimeter): 30.21 inches Hg (1023.0 mb)
Winds: variable direction winds at 1 MPH (1 knots; 0.5 m/s)
Visibility: 0.19 miles (0.31 km)
Ceiling: indefinite ceiling with vertical visibility of 100 feet AGL
Clouds: obscured sky
Weather: FG  (fog)

METAR text: LSZH 250550Z 31002KT 0300 R14/0650N R16/0600N R28/1500N R34/0700N FG VV001 03/03 Q1023 NOSIG
Conditions at: LSZH (ZURICH-KLOTEN (A, CH) observed 0550 UTC 25 October 2021
Temperature: 3.0°C (37°F)
Dewpoint: 3.0°C (37°F) [RH = 100%]
Pressure (altimeter): 30.21 inches Hg (1023.0 mb)
Winds: from the NW (310 degrees) at 2 MPH (2 knots; 1.0 m/s)
Visibility: 0.19 miles (0.31 km)
Ceiling: indefinite ceiling with vertical visibility of 100 feet AGL
Clouds: obscured sky
Weather: FG  (fog)

METAR text: LSZH 250520Z VRB02KT 0600 R14/1000D R16/0750D R28/P2000N R34/P2000N FG VV002 03/03 Q1023 TEMPO 0300 VV001
Conditions at: LSZH (ZURICH-KLOTEN (A, CH) observed 0520 UTC 25 October 2021
Temperature: 3.0°C (37°F)
Dewpoint: 3.0°C (37°F) [RH = 100%]
Pressure (altimeter): 30.21 inches Hg (1023.0 mb)
Winds: variable direction winds at 2 MPH (2 knots; 1.0 m/s)
Visibility: 0.37 miles (0.60 km)
Ceiling: indefinite ceiling with vertical visibility of 200 feet AGL
Clouds: obscured sky
Weather: FG  (fog)

METAR text: LSZH 250450Z 34002KT 0800 R14/1100D R16/P2000N R28/P2000N R34/P2000N BCFG VCFG BKN002 03/03 Q1023 TEMPO 0400 FG VV002
Conditions at: LSZH (ZURICH-KLOTEN (A, CH) observed 0450 UTC 25 October 2021
Temperature: 3.0°C (37°F)
Dewpoint: 3.0°C (37°F) [RH = 100%]
Pressure (altimeter): 30.21 inches Hg (1023.0 mb)
Winds: from the NNW (340 degrees) at 2 MPH (2 knots; 1.0 m/s)
Visibility: 0.50 miles (0.80 km)
Ceiling: 200 feet AGL
Clouds: broken clouds at 200 feet AGL
Weather: VCFG BCFG  (fog in vicinity, patches of fog)

METAR text: LSZH 250420Z 31001KT 0800 R14/P2000N R16/0800U R28/1100D R34/P2000N BCFG VCFG BKN002 03/03 Q1023 TEMPO 0400 FG VV002
Conditions at: LSZH (ZURICH-KLOTEN (A, CH) observed 0420 UTC 25 October 2021
Temperature: 3.0°C (37°F)
Dewpoint: 3.0°C (37°F) [RH = 100%]
Pressure (altimeter): 30.21 inches Hg (1023.0 mb)
Winds: from the NW (310 degrees) at 1 MPH (1 knots; 0.5 m/s)
Visibility: 0.50 miles (0.80 km)
Ceiling: 200 feet AGL
Clouds: broken clouds at 200 feet AGL
Weather: VCFG BCFG  (fog in vicinity, patches of fog)

METAR text: LSZH 250350Z VRB01KT 0800 R14/P2000N R16/1500U R28/P2000N R34/P2000N BCFG VCFG FEW001 BKN002 02/02 Q1023 TEMPO 0400 FG VV002
Conditions at: LSZH (ZURICH-KLOTEN (A, CH) observed 0350 UTC 25 October 2021
Temperature: 2.0°C (36°F)
Dewpoint: 2.0°C (36°F) [RH = 100%]
Pressure (altimeter): 30.21 inches Hg (1023.0 mb)
Winds: variable direction winds at 1 MPH (1 knots; 0.5 m/s)
Visibility: 0.50 miles (0.80 km)
Ceiling: 200 feet AGL
Clouds: few clouds at 100 feet AGL
broken clouds at 200 feet AGL
Weather: VCFG BCFG  (fog in vicinity, patches of fog)

METAR text: LSZH 250320Z AUTO VRB01KT 1400 0150N R14/1100U R16/0900U R28/P2000N R34/P2000N BCFG VCFG SCT002 SCT003 02/02 Q1023 TEMPO 0300
Conditions at: LSZH (ZURICH-KLOTEN (A, CH) observed 0320 UTC 25 October 2021
Temperature: 2.0°C (36°F)
Dewpoint: 2.0°C (36°F) [RH = 100%]
Pressure (altimeter): 30.21 inches Hg (1023.0 mb)
Winds: variable direction winds at 1 MPH (1 knots; 0.5 m/s)
Visibility: 0.87 miles (1.40 km)
Ceiling: at least 12,000 feet AGL
Clouds: scattered clouds at 200 feet AGL
scattered clouds at 300 feet AGL
Weather: VCFG BCFG  (fog in vicinity, patches of fog)

METAR text: LSZH 250250Z AUTO 00000KT 0800 0150N R14/0700N R16/0800N R28/P2000N R34/1000U PRFG BKN001 02/02 Q1023 TEMPO 0300
Conditions at: LSZH (ZURICH-KLOTEN (A, CH) observed 0250 UTC 25 October 2021
Temperature: 2.0°C (36°F)
Dewpoint: 2.0°C (36°F) [RH = 100%]
Pressure (altimeter): 30.21 inches Hg (1023.0 mb)
Winds: calm
Visibility: 0.50 miles (0.80 km)
Ceiling: 100 feet AGL
Clouds: broken clouds at 100 feet AGL
Weather: PRFG  (partial fog)

METAR text: LSZH 250220Z AUTO 31002KT 0900 0150S R14/0900D R16/0800D R28/1100U R34/0700N PRFG VCFG FEW002 02/02 Q1024 TEMPO 0300
Conditions at: LSZH (ZURICH-KLOTEN (A, CH) observed 0220 UTC 25 October 2021
Temperature: 2.0°C (36°F)
Dewpoint: 2.0°C (36°F) [RH = 100%]
Pressure (altimeter): 30.24 inches Hg (1024.0 mb)
Winds: from the NW (310 degrees) at 2 MPH (2 knots; 1.0 m/s)
Visibility: 0.56 miles (0.90 km)
Ceiling: at least 12,000 feet AGL
Clouds: few clouds at 200 feet AGL
Weather: VCFG PRFG  (fog in vicinity, partial fog)

METAR text: LSZH 250150Z AUTO VRB02KT 1600 0300N R14/0900D R16/1200U R28/P2000N R34/1000D BCFG VCFG BKN001 02/02 Q1024 TEMPO 0300
Conditions at: LSZH (ZURICH-KLOTEN (A, CH) observed 0150 UTC 25 October 2021
Temperature: 2.0°C (36°F)
Dewpoint: 2.0°C (36°F) [RH = 100%]
Pressure (altimeter): 30.24 inches Hg (1024.0 mb)
Winds: variable direction winds at 2 MPH (2 knots; 1.0 m/s)
Visibility: 0.99 miles (1.59 km)
Ceiling: 100 feet AGL
Clouds: broken clouds at 100 feet AGL
Weather: VCFG BCFG  (fog in vicinity, patches of fog)

METAR text: LSZH 250120Z AUTO 33003KT 1300 0150S R14/1500N R16/1200D R28/1300N R34/0800U BCFG VCFG SCT001 02/02 Q1024 TEMPO 0300
Conditions at: LSZH (ZURICH-KLOTEN (A, CH) observed 0120 UTC 25 October 2021
Temperature: 2.0°C (36°F)
Dewpoint: 2.0°C (36°F) [RH = 100%]
Pressure (altimeter): 30.24 inches Hg (1024.0 mb)
Winds: from the NNW (330 degrees) at 3 MPH (3 knots; 1.5 m/s)
Visibility: 0.81 miles (1.30 km)
Ceiling: at least 12,000 feet AGL
Clouds: scattered clouds at 100 feet AGL
Weather: VCFG BCFG  (fog in vicinity, patches of fog)

METAR text: LSZH 250050Z AUTO 36002KT 0650 0100S R14/0750D R16/0800U R28/P2000N R34/0650N PRFG VCFG VV002 02/02 Q1024 TEMPO 0300 VV002
Conditions at: LSZH (ZURICH-KLOTEN (A, CH) observed 0050 UTC 25 October 2021
Temperature: 2.0°C (36°F)
Dewpoint: 2.0°C (36°F) [RH = 100%]
Pressure (altimeter): 30.24 inches Hg (1024.0 mb)
Winds: from the N (360 degrees) at 2 MPH (2 knots; 1.0 m/s)
Visibility: 0.40 miles (0.64 km)
Ceiling: indefinite ceiling with vertical visibility of 200 feet AGL
Clouds: obscured sky
Weather: VCFG PRFG  (fog in vicinity, partial fog)

METAR text: LSZH 250020Z AUTO 34001KT 0900 0200N R14/0800N R16/0700N R28/P2000N R34/1100N PRFG VCFG FEW003 02/02 Q1024 TEMPO 0300
Conditions at: LSZH (ZURICH-KLOTEN (A, CH) observed 0020 UTC 25 October 2021
Temperature: 2.0°C (36°F)
Dewpoint: 2.0°C (36°F) [RH = 100%]
Pressure (altimeter): 30.24 inches Hg (1024.0 mb)
Winds: from the NNW (340 degrees) at 1 MPH (1 knots; 0.5 m/s)
Visibility: 0.56 miles (0.90 km)
Ceiling: at least 12,000 feet AGL
Clouds: few clouds at 300 feet AGL
Weather: VCFG PRFG  (fog in vicinity, partial fog)

METAR text: LSZH 242350Z AUTO 29001KT 0700 0100S R14/0800U R16/0600N R28/0600N R34/0700D FG VCFG VV002 01/01 Q1024 TEMPO 0300
Conditions at: LSZH (ZURICH-KLOTEN (A, CH) observed 2350 UTC 24 October 2021
Temperature: 1.0°C (34°F)
Dewpoint: 1.0°C (34°F) [RH = 100%]
Pressure (altimeter): 30.24 inches Hg (1024.0 mb)
Winds: from the WNW (290 degrees) at 1 MPH (1 knots; 0.5 m/s)
Visibility: 0.43 miles (0.69 km)
Ceiling: indefinite ceiling with vertical visibility of 200 feet AGL
Clouds: obscured sky
Weather: VCFG FG  (fog in vicinity, fog)

METAR text: LSZH 242320Z AUTO 33001KT 0500 0100E R14/0800N R16/0700D R28/0450N R34/0650U FG VV002 02/02 Q1024 TEMPO 0300
Conditions at: LSZH (ZURICH-KLOTEN (A, CH) observed 2320 UTC 24 October 2021
Temperature: 2.0°C (36°F)
Dewpoint: 2.0°C (36°F) [RH = 100%]
Pressure (altimeter): 30.24 inches Hg (1024.0 mb)
Winds: from the NNW (330 degrees) at 1 MPH (1 knots; 0.5 m/s)
Visibility: 0.31 miles (0.50 km)
Ceiling: indefinite ceiling with vertical visibility of 200 feet AGL
Clouds: obscured sky
Weather: FG  (fog)

METAR text: LSZH 242250Z AUTO 30002KT 1000 0150E R14/0800U R16/0750D R28/0750N R34/P2000N PRFG VCFG FEW001 01/01 Q1024 TEMPO 0300 VV002
Conditions at: LSZH (ZURICH-KLOTEN (A, CH) observed 2250 UTC 24 October 2021
Temperature: 1.0°C (34°F)
Dewpoint: 1.0°C (34°F) [RH = 100%]
Pressure (altimeter): 30.24 inches Hg (1024.0 mb)
Winds: from the WNW (300 degrees) at 2 MPH (2 knots; 1.0 m/s)
Visibility: 0.62 miles (1.00 km)
Ceiling: at least 12,000 feet AGL
Clouds: few clouds at 100 feet AGL
Weather: VCFG PRFG  (fog in vicinity, partial fog)

METAR text: LSZH 242220Z AUTO 33003KT 1700 0100E R14/0600N R16/1600N R28/0500D R34/P2000N PRFG VCFG NCD 01/01 Q1024 TEMPO 0300 PRFG
Conditions at: LSZH (ZURICH-KLOTEN (A, CH) observed 2220 UTC 24 October 2021
Temperature: 1.0°C (34°F)
Dewpoint: 1.0°C (34°F) [RH = 100%]
Pressure (altimeter): 30.24 inches Hg (1024.0 mb)
Winds: from the NNW (330 degrees) at 3 MPH (3 knots; 1.5 m/s)
Visibility: 1.06 miles (1.71 km)
Ceiling: at least 12,000 feet AGL
Clouds: sky clear below 12,000 feet AGL
Weather: VCFG PRFG  (fog in vicinity, partial fog)

METAR text: LSZH 242150Z AUTO 35001KT 3400 0100N R14/0500D R16/0650N R28/P2000N R34/P2000N PRFG VCFG SCT001 SCT003 01/01 Q1024 TEMPO 0300 PRFG
Conditions at: LSZH (ZURICH-KLOTEN (A, CH) observed 2150 UTC 24 October 2021
Temperature: 1.0°C (34°F)
Dewpoint: 1.0°C (34°F) [RH = 100%]
Pressure (altimeter): 30.24 inches Hg (1024.0 mb)
Winds: from the N (350 degrees) at 1 MPH (1 knots; 0.5 m/s)
Visibility: 2.11 miles (3.40 km)
Ceiling: at least 12,000 feet AGL
Clouds: scattered clouds at 100 feet AGL
scattered clouds at 300 feet AGL
Weather: VCFG PRFG  (fog in vicinity, partial fog)

METAR text: LSZH 242120Z 32002KT 2000 0500N R14/0600D R16/0600U R28/P2000N R34/P2000N BCFG NSC 02/02 Q1024 TEMPO 0300 PRFG
Conditions at: LSZH (ZURICH-KLOTEN (A, CH) observed 2120 UTC 24 October 2021
Temperature: 2.0°C (36°F)
Dewpoint: 2.0°C (36°F) [RH = 100%]
Pressure (altimeter): 30.24 inches Hg (1024.0 mb)
Winds: from the NW (320 degrees) at 2 MPH (2 knots; 1.0 m/s)
Visibility: 1.24 miles (2.00 km)
Ceiling: at least 12,000 feet AGL
Clouds: sky clear below 12,000 feet AGL
Weather: BCFG  (patches of fog)

METAR text: LSZH 242050Z 33003KT 3200 0500N R14/0800U R16/0650D R28/P2000N R34/P2000N BCFG NSC 01/00 Q1024 TEMPO 0800 PRFG
Conditions at: LSZH (ZURICH-KLOTEN (A, CH) observed 2050 UTC 24 October 2021
Temperature: 1.0°C (34°F)
Dewpoint: 0.0°C (32°F) [RH = 93%]
Pressure (altimeter): 30.24 inches Hg (1024.0 mb)
Winds: from the NNW (330 degrees) at 3 MPH (3 knots; 1.5 m/s)
Visibility: 1.99 miles (3.20 km)
Ceiling: at least 12,000 feet AGL
Clouds: sky clear below 12,000 feet AGL
Weather: BCFG  (patches of fog)

METAR text: LSZH 242020Z 29003KT 7000 0800N R14/0550N R16/P2000N R28/P2000N R34/P2000N BCFG NSC 02/02 Q1024 TEMPO 2500 PRFG
Conditions at: LSZH (ZURICH-KLOTEN (A, CH) observed 2020 UTC 24 October 2021
Temperature: 2.0°C (36°F)
Dewpoint: 2.0°C (36°F) [RH = 100%]
Pressure (altimeter): 30.24 inches Hg (1024.0 mb)
Winds: from the WNW (290 degrees) at 3 MPH (3 knots; 1.5 m/s)
Visibility: 4 miles ( 7 km)
Ceiling: at least 12,000 feet AGL
Clouds: sky clear below 12,000 feet AGL
Weather: BCFG  (patches of fog)

METAR text: LSZH 241950Z 30003KT 9000 BCFG NSC 03/03 Q1024 TEMPO 2500 PRFG
Conditions at: LSZH (ZURICH-KLOTEN (A, CH) observed 1950 UTC 24 October 2021
Temperature: 3.0°C (37°F)
Dewpoint: 3.0°C (37°F) [RH = 100%]
Pressure (altimeter): 30.24 inches Hg (1024.0 mb)
Winds: from the WNW (300 degrees) at 3 MPH (3 knots; 1.5 m/s)
Visibility: 6 miles ( 9 km)
Ceiling: at least 12,000 feet AGL
Clouds: sky clear below 12,000 feet AGL
Weather: BCFG  (patches of fog)

METAR text: LSZH 241920Z 34002KT 9000 0450S R14/1500N R16/P2000N R28/P2000N R34/P2000N BCFG NSC 03/03 Q1024 TEMPO 2500 PRFG
Conditions at: LSZH (ZURICH-KLOTEN (A, CH) observed 1920 UTC 24 October 2021
Temperature: 3.0°C (37°F)
Dewpoint: 3.0°C (37°F) [RH = 100%]
Pressure (altimeter): 30.24 inches Hg (1024.0 mb)
Winds: from the NNW (340 degrees) at 2 MPH (2 knots; 1.0 m/s)
Visibility: 6 miles ( 9 km)
Ceiling: at least 12,000 feet AGL
Clouds: sky clear below 12,000 feet AGL
Weather: BCFG  (patches of fog)

METAR text: LSZH 241850Z 32001KT 9999 MIFG NSC 04/03 Q1024 TEMPO 4000 BCFG
Conditions at: LSZH (ZURICH-KLOTEN (A, CH) observed 1850 UTC 24 October 2021
Temperature: 4.0°C (39°F)
Dewpoint: 3.0°C (37°F) [RH = 93%]
Pressure (altimeter): 30.24 inches Hg (1024.0 mb)
Winds: from the NW (320 degrees) at 1 MPH (1 knots; 0.5 m/s)
Visibility: 6 or more miles (10+ km)
Ceiling: at least 12,000 feet AGL
Clouds: sky clear below 12,000 feet AGL
Weather: MIFG  (shallow fog)

METAR text: LSZH 241820Z 33002KT CAVOK 05/04 Q1024 NOSIG
Conditions at: LSZH (ZURICH-KLOTEN (A, CH) observed 1820 UTC 24 October 2021
Temperature: 5.0°C (41°F)
Dewpoint: 4.0°C (39°F) [RH = 93%]
Pressure (altimeter): 30.24 inches Hg (1024.0 mb)
Winds: from the NNW (330 degrees) at 2 MPH (2 knots; 1.0 m/s)
Visibility: 6 or more miles (10+ km)
Ceiling: ceiling and visibility are OK
Clouds: unknown
Weather: no significant weather observed at this time

METAR text: LSZH 241750Z 31003KT CAVOK 07/05 Q1024 NOSIG
Conditions at: LSZH (ZURICH-KLOTEN (A, CH) observed 1750 UTC 24 October 2021
Temperature: 7.0°C (45°F)
Dewpoint: 5.0°C (41°F) [RH = 87%]
Pressure (altimeter): 30.24 inches Hg (1024.0 mb)
Winds: from the NW (310 degrees) at 3 MPH (3 knots; 1.5 m/s)
Visibility: 6 or more miles (10+ km)
Ceiling: ceiling and visibility are OK
Clouds: unknown
Weather: no significant weather observed at this time

METAR text: LSZH 241720Z 32003KT CAVOK 05/04 Q1024 NOSIG
Conditions at: LSZH (ZURICH-KLOTEN (A, CH) observed 1720 UTC 24 October 2021
Temperature: 5.0°C (41°F)
Dewpoint: 4.0°C (39°F) [RH = 93%]
Pressure (altimeter): 30.24 inches Hg (1024.0 mb)
Winds: from the NW (320 degrees) at 3 MPH (3 knots; 1.5 m/s)
Visibility: 6 or more miles (10+ km)
Ceiling: ceiling and visibility are OK
Clouds: unknown
Weather: no significant weather observed at this time

METAR text: LSZH 241650Z 32004KT CAVOK 06/05 Q1024 NOSIG
Conditions at: LSZH (ZURICH-KLOTEN (A, CH) observed 1650 UTC 24 October 2021
Temperature: 6.0°C (43°F)
Dewpoint: 5.0°C (41°F) [RH = 93%]
Pressure (altimeter): 30.24 inches Hg (1024.0 mb)
Winds: from the NW (320 degrees) at 5 MPH (4 knots; 2.1 m/s)
Visibility: 6 or more miles (10+ km)
Ceiling: ceiling and visibility are OK
Clouds: unknown
Weather: no significant weather observed at this time

METAR text: LSZH 241620Z 32004KT 280V350 CAVOK 08/06 Q1024 NOSIG
Conditions at: LSZH (ZURICH-KLOTEN (A, CH) observed 1620 UTC 24 October 2021
Temperature: 8.0°C (46°F)
Dewpoint: 6.0°C (43°F) [RH = 87%]
Pressure (altimeter): 30.24 inches Hg (1024.0 mb)
Winds: from the NW (320 degrees) at 5 MPH (4 knots; 2.1 m/s)
Visibility: 6 or more miles (10+ km)
Ceiling: ceiling and visibility are OK
Clouds: unknown
Weather: no significant weather observed at this time

METAR text: LSZH 241550Z 18001KT CAVOK 13/07 Q1024 NOSIG
Conditions at: LSZH (ZURICH-KLOTEN (A, CH) observed 1550 UTC 24 October 2021
Temperature: 13.0°C (55°F)
Dewpoint: 7.0°C (45°F) [RH = 67%]
Pressure (altimeter): 30.24 inches Hg (1024.0 mb)
Winds: from the S (180 degrees) at 1 MPH (1 knots; 0.5 m/s)
Visibility: 6 or more miles (10+ km)
Ceiling: ceiling and visibility are OK
Clouds: unknown
Weather: no significant weather observed at this time

METAR text: LSZH 241520Z 14002KT CAVOK 13/06 Q1024 NOSIG
Conditions at: LSZH (ZURICH-KLOTEN (A, CH) observed 1520 UTC 24 October 2021
Temperature: 13.0°C (55°F)
Dewpoint: 6.0°C (43°F) [RH = 62%]
Pressure (altimeter): 30.24 inches Hg (1024.0 mb)
Winds: from the SE (140 degrees) at 2 MPH (2 knots; 1.0 m/s)
Visibility: 6 or more miles (10+ km)
Ceiling: ceiling and visibility are OK
Clouds: unknown
Weather: no significant weather observed at this time

METAR text: LSZH 241450Z VRB01KT CAVOK 13/06 Q1024 NOSIG
Conditions at: LSZH (ZURICH-KLOTEN (A, CH) observed 1450 UTC 24 October 2021
Temperature: 13.0°C (55°F)
Dewpoint: 6.0°C (43°F) [RH = 62%]
Pressure (altimeter): 30.24 inches Hg (1024.0 mb)
Winds: variable direction winds at 1 MPH (1 knots; 0.5 m/s)
Visibility: 6 or more miles (10+ km)
Ceiling: ceiling and visibility are OK
Clouds: unknown
Weather: no significant weather observed at this time

METAR text: LSZH 241420Z VRB02KT CAVOK 13/05 Q1024 NOSIG
Conditions at: LSZH (ZURICH-KLOTEN (A, CH) observed 1420 UTC 24 October 2021
Temperature: 13.0°C (55°F)
Dewpoint: 5.0°C (41°F) [RH = 58%]
Pressure (altimeter): 30.24 inches Hg (1024.0 mb)
Winds: variable direction winds at 2 MPH (2 knots; 1.0 m/s)
Visibility: 6 or more miles (10+ km)
Ceiling: ceiling and visibility are OK
Clouds: unknown
Weather: no significant weather observed at this time

METAR text: LSZH 241350Z VRB02KT CAVOK 13/05 Q1025 NOSIG
Conditions at: LSZH (ZURICH-KLOTEN (A, CH) observed 1350 UTC 24 October 2021
Temperature: 13.0°C (55°F)
Dewpoint: 5.0°C (41°F) [RH = 58%]
Pressure (altimeter): 30.27 inches Hg (1025.0 mb)
Winds: variable direction winds at 2 MPH (2 knots; 1.0 m/s)
Visibility: 6 or more miles (10+ km)
Ceiling: ceiling and visibility are OK
Clouds: unknown
Weather: no significant weather observed at this time

METAR text: LSZH 241320Z VRB02KT CAVOK 12/05 Q1025 NOSIG
Conditions at: LSZH (ZURICH-KLOTEN (A, CH) observed 1320 UTC 24 October 2021
Temperature: 12.0°C (54°F)
Dewpoint: 5.0°C (41°F) [RH = 62%]
Pressure (altimeter): 30.27 inches Hg (1025.0 mb)
Winds: variable direction winds at 2 MPH (2 knots; 1.0 m/s)
Visibility: 6 or more miles (10+ km)
Ceiling: ceiling and visibility are OK
Clouds: unknown
Weather: no significant weather observed at this time

METAR text: LSZH 241250Z VRB02KT CAVOK 11/05 Q1025 NOSIG
Conditions at: LSZH (ZURICH-KLOTEN (A, CH) observed 1250 UTC 24 October 2021
Temperature: 11.0°C (52°F)
Dewpoint: 5.0°C (41°F) [RH = 66%]
Pressure (altimeter): 30.27 inches Hg (1025.0 mb)
Winds: variable direction winds at 2 MPH (2 knots; 1.0 m/s)
Visibility: 6 or more miles (10+ km)
Ceiling: ceiling and visibility are OK
Clouds: unknown
Weather: no significant weather observed at this time

METAR text: LSZH 241220Z VRB02KT CAVOK 10/05 Q1026 NOSIG
Conditions at: LSZH (ZURICH-KLOTEN (A, CH) observed 1220 UTC 24 October 2021
Temperature: 10.0°C (50°F)
Dewpoint: 5.0°C (41°F) [RH = 71%]
Pressure (altimeter): 30.30 inches Hg (1026.0 mb)
Winds: variable direction winds at 2 MPH (2 knots; 1.0 m/s)
Visibility: 6 or more miles (10+ km)
Ceiling: ceiling and visibility are OK
Clouds: unknown
Weather: no significant weather observed at this time

METAR text: LSZH 241150Z VRB02KT CAVOK 10/05 Q1026 NOSIG
Conditions at: LSZH (ZURICH-KLOTEN (A, CH) observed 1150 UTC 24 October 2021
Temperature: 10.0°C (50°F)
Dewpoint: 5.0°C (41°F) [RH = 71%]
Pressure (altimeter): 30.30 inches Hg (1026.0 mb)
Winds: variable direction winds at 2 MPH (2 knots; 1.0 m/s)
Visibility: 6 or more miles (10+ km)
Ceiling: ceiling and visibility are OK
Clouds: unknown
Weather: no significant weather observed at this time

METAR text: LSZH 241120Z VRB02KT CAVOK 09/04 Q1027 NOSIG
Conditions at: LSZH (ZURICH-KLOTEN (A, CH) observed 1120 UTC 24 October 2021
Temperature: 9.0°C (48°F)
Dewpoint: 4.0°C (39°F) [RH = 71%]
Pressure (altimeter): 30.32 inches Hg (1027.0 mb)
Winds: variable direction winds at 2 MPH (2 knots; 1.0 m/s)
Visibility: 6 or more miles (10+ km)
Ceiling: ceiling and visibility are OK
Clouds: unknown
Weather: no significant weather observed at this time

METAR text: LSZH 241050Z VRB02KT CAVOK 08/04 Q1027 NOSIG
Conditions at: LSZH (ZURICH-KLOTEN (A, CH) observed 1050 UTC 24 October 2021
Temperature: 8.0°C (46°F)
Dewpoint: 4.0°C (39°F) [RH = 76%]
Pressure (altimeter): 30.32 inches Hg (1027.0 mb)
Winds: variable direction winds at 2 MPH (2 knots; 1.0 m/s)
Visibility: 6 or more miles (10+ km)
Ceiling: ceiling and visibility are OK
Clouds: unknown
Weather: no significant weather observed at this time

Forecast for: LSZH (ZURICH-KLOTEN (A, CH)
Text: TAF LSZH 252025Z 2521/2703 VRB02KT 4500 MIFG NSC TX13/2614Z TN03/2601Z
Forecast period: 2100 to 2300 UTC 25 October 2021
Forecast type: FROM: standard forecast or significant change
Winds: variable direction winds at 2 MPH (2 knots; 1.0 m/s)
Visibility: 2.80 miles (4.51 km)
Ceiling: unknown
Clouds: missing
Weather: MIFG  (shallow fog)
Text: PROB40
Forecast period: 2100 UTC 25 October 2021 to 0000 UTC 26 October 2021
Forecast type: TEMPORARY: The following changes expected for less than half the time period
Visibility: 0.93 miles (1.50 km)
Ceiling: unknown
Clouds: missing
Weather: BCFG  (patches of fog)
Text: TEMPO 2521/2524 1500 BCFG
Forecast period: 2300 UTC 25 October 2021 to 0900 UTC 26 October 2021
Forecast type: BECOMING: Conditions expected to become as follows by 0200 UTC 26 October 2021
Winds: variable direction winds at 2 MPH (2 knots; 1.0 m/s)
Visibility: 4 miles (6 km)
Ceiling: 3000 feet AGL
Clouds: broken clouds at 3000 feet AGL
Weather: NSW  (no significant weather)
Text: BECMG 2523/2602 6000 NSW BKN030
Forecast period: 0400 to 1600 UTC 26 October 2021
Forecast type: TEMPORARY: The following changes expected for less than half the time period
Visibility: missing
Ceiling: unknown
Clouds: missing
Weather: SHRA  (rain showers)
Text: PROB30
Forecast period: 0900 UTC 26 October 2021 to 0300 UTC 27 October 2021
Forecast type: BECOMING: Conditions expected to become as follows by 1200 UTC 26 October 2021
Winds: variable direction winds at 2 MPH (2 knots; 1.0 m/s)
Visibility: 6 or more miles (10+ km)
Ceiling: 3000 feet AGL
Clouds: broken clouds at 3000 feet AGL
Weather: NSW  (no significant weather)